sensor_id;sensor_type;location;lat;lon;timestamp;P1;durP1;ratioP1;P2;durP2;ratioP2
13683;SDS011;6914;53.552;9.908;2023-04-09T00:02:17;97.83;;;48.27;;
13683;SDS011;6914;53.552;9.908;2023-04-09T00:04:44;111.37;;;51.60;;
13683;SDS011;6914;53.552;9.908;2023-04-09T00:07:13;118.60;;;54.37;;
13683;SDS011;6914;53.552;9.908;2023-04-09T00:09:40;129.10;;;55.67;;
13683;SDS011;6914;53.552;9.908;2023-04-09T00:12:07;123.50;;;53.27;;
13683;SDS011;6914;53.552;9.908;2023-04-09T00:14:34;112.00;;;54.63;;
13683;SDS011;6914;53.552;9.908;2023-04-09T00:17:01;118.67;;;53.40;;
13683;SDS011;6914;53.552;9.908;2023-04-09T00:19:31;133.70;;;57.90;;
13683;SDS011;6914;53.552;9.908;2023-04-09T00:21:58;117.00;;;54.60;;
13683;SDS011;6914;53.552;9.908;2023-04-09T00:24:29;126.10;;;56.93;;
13683;SDS011;6914;53.552;9.908;2023-04-09T00:26:56;117.53;;;55.90;;
13683;SDS011;6914;53.552;9.908;2023-04-09T00:29:23;127.87;;;52.43;;
13683;SDS011;6914;53.552;9.908;2023-04-09T00:31:51;124.67;;;53.37;;
13683;SDS011;6914;53.552;9.908;2023-04-09T00:34:19;121.13;;;53.10;;
13683;SDS011;6914;53.552;9.908;2023-04-09T00:36:46;110.90;;;54.40;;
13683;SDS011;6914;53.552;9.908;2023-04-09T00:39:13;135.87;;;53.83;;
13683;SDS011;6914;53.552;9.908;2023-04-09T00:41:41;134.30;;;54.20;;
13683;SDS011;6914;53.552;9.908;2023-04-09T00:44:08;125.60;;;51.23;;
13683;SDS011;6914;53.552;9.908;2023-04-09T00:46:35;119.13;;;53.63;;
13683;SDS011;6914;53.552;9.908;2023-04-09T00:49:02;130.40;;;53.67;;
13683;SDS011;6914;53.552;9.908;2023-04-09T00:51:32;116.00;;;53.20;;
13683;SDS011;6914;53.552;9.908;2023-04-09T00:53:59;130.07;;;53.90;;
13683;SDS011;6914;53.552;9.908;2023-04-09T00:56:28;128.07;;;51.10;;
13683;SDS011;6914;53.552;9.908;2023-04-09T00:58:57;126.63;;;55.93;;
13683;SDS011;6914;53.552;9.908;2023-04-09T01:01:25;121.00;;;51.90;;
13683;SDS011;6914;53.552;9.908;2023-04-09T01:03:51;130.83;;;51.30;;
13683;SDS011;6914;53.552;9.908;2023-04-09T01:06:21;111.83;;;48.87;;
13683;SDS011;6914;53.552;9.908;2023-04-09T01:08:55;124.77;;;49.30;;
13683;SDS011;6914;53.552;9.908;2023-04-09T01:11:31;104.30;;;46.47;;
13683;SDS011;6914;53.552;9.908;2023-04-09T01:14:13;111.73;;;47.97;;
13683;SDS011;6914;53.552;9.908;2023-04-09T01:16:46;123.33;;;47.50;;
13683;SDS011;6914;53.552;9.908;2023-04-09T01:19:26;123.03;;;50.50;;
13683;SDS011;6914;53.552;9.908;2023-04-09T01:22:09;111.97;;;51.23;;
13683;SDS011;6914;53.552;9.908;2023-04-09T01:24:54;120.63;;;50.00;;
13683;SDS011;6914;53.552;9.908;2023-04-09T01:27:33;107.30;;;49.57;;
13683;SDS011;6914;53.552;9.908;2023-04-09T01:30:09;114.10;;;47.70;;
13683;SDS011;6914;53.552;9.908;2023-04-09T01:32:40;113.50;;;47.93;;
13683;SDS011;6914;53.552;9.908;2023-04-09T01:35:08;99.00;;;45.27;;
13683;SDS011;6914;53.552;9.908;2023-04-09T01:37:35;115.87;;;45.80;;
13683;SDS011;6914;53.552;9.908;2023-04-09T01:40:06;90.50;;;41.70;;
13683;SDS011;6914;53.552;9.908;2023-04-09T01:42:34;103.57;;;43.23;;
13683;SDS011;6914;53.552;9.908;2023-04-09T01:45:03;100.07;;;44.60;;
13683;SDS011;6914;53.552;9.908;2023-04-09T01:47:34;89.87;;;39.40;;
13683;SDS011;6914;53.552;9.908;2023-04-09T01:50:02;91.70;;;40.37;;
13683;SDS011;6914;53.552;9.908;2023-04-09T01:52:32;92.00;;;40.03;;
13683;SDS011;6914;53.552;9.908;2023-04-09T01:55:00;94.07;;;37.77;;
13683;SDS011;6914;53.552;9.908;2023-04-09T01:57:29;75.00;;;38.60;;
13683;SDS011;6914;53.552;9.908;2023-04-09T01:59:56;72.30;;;35.97;;
13683;SDS011;6914;53.552;9.908;2023-04-09T02:02:24;74.73;;;38.13;;
13683;SDS011;6914;53.552;9.908;2023-04-09T02:04:58;73.90;;;35.63;;
13683;SDS011;6914;53.552;9.908;2023-04-09T02:07:31;66.83;;;34.60;;
13683;SDS011;6914;53.552;9.908;2023-04-09T02:10:04;80.90;;;35.00;;
13683;SDS011;6914;53.552;9.908;2023-04-09T02:12:36;58.60;;;32.10;;
13683;SDS011;6914;53.552;9.908;2023-04-09T02:15:07;64.63;;;34.17;;
13683;SDS011;6914;53.552;9.908;2023-04-09T02:17:34;63.00;;;31.00;;
13683;SDS011;6914;53.552;9.908;2023-04-09T02:20:04;67.00;;;31.97;;
13683;SDS011;6914;53.552;9.908;2023-04-09T02:22:35;61.13;;;31.07;;
13683;SDS011;6914;53.552;9.908;2023-04-09T02:25:02;56.13;;;29.80;;
13683;SDS011;6914;53.552;9.908;2023-04-09T02:27:31;61.57;;;32.10;;
13683;SDS011;6914;53.552;9.908;2023-04-09T02:29:57;65.10;;;33.40;;
13683;SDS011;6914;53.552;9.908;2023-04-09T02:32:24;70.83;;;34.60;;
13683;SDS011;6914;53.552;9.908;2023-04-09T02:34:51;64.80;;;31.23;;
13683;SDS011;6914;53.552;9.908;2023-04-09T02:37:20;75.17;;;33.13;;
13683;SDS011;6914;53.552;9.908;2023-04-09T02:39:46;71.50;;;33.63;;
13683;SDS011;6914;53.552;9.908;2023-04-09T02:42:13;61.10;;;31.17;;
13683;SDS011;6914;53.552;9.908;2023-04-09T02:44:40;92.00;;;34.50;;
13683;SDS011;6914;53.552;9.908;2023-04-09T02:47:08;69.97;;;31.53;;
13683;SDS011;6914;53.552;9.908;2023-04-09T02:49:35;68.67;;;31.80;;
13683;SDS011;6914;53.552;9.908;2023-04-09T02:52:02;61.17;;;32.10;;
13683;SDS011;6914;53.552;9.908;2023-04-09T02:54:31;64.53;;;30.90;;
13683;SDS011;6914;53.552;9.908;2023-04-09T02:56:58;70.20;;;32.17;;
13683;SDS011;6914;53.552;9.908;2023-04-09T02:59:25;68.67;;;32.57;;
13683;SDS011;6914;53.552;9.908;2023-04-09T03:01:52;70.43;;;33.23;;
13683;SDS011;6914;53.552;9.908;2023-04-09T03:04:19;69.13;;;33.73;;
13683;SDS011;6914;53.552;9.908;2023-04-09T03:06:46;71.93;;;33.37;;
13683;SDS011;6914;53.552;9.908;2023-04-09T03:11:53;70.97;;;32.20;;
13683;SDS011;6914;53.552;9.908;2023-04-09T03:14:21;57.90;;;31.17;;
13683;SDS011;6914;53.552;9.908;2023-04-09T03:16:48;71.03;;;34.53;;
13683;SDS011;6914;53.552;9.908;2023-04-09T03:19:15;63.27;;;32.37;;
13683;SDS011;6914;53.552;9.908;2023-04-09T03:21:42;66.47;;;32.23;;
13683;SDS011;6914;53.552;9.908;2023-04-09T03:24:10;62.37;;;33.50;;
13683;SDS011;6914;53.552;9.908;2023-04-09T03:26:37;65.10;;;32.50;;
13683;SDS011;6914;53.552;9.908;2023-04-09T03:29:05;72.13;;;35.60;;
13683;SDS011;6914;53.552;9.908;2023-04-09T03:31:35;60.97;;;31.20;;
13683;SDS011;6914;53.552;9.908;2023-04-09T03:34:02;70.97;;;35.67;;
13683;SDS011;6914;53.552;9.908;2023-04-09T03:36:28;73.73;;;32.53;;
13683;SDS011;6914;53.552;9.908;2023-04-09T03:38:55;65.87;;;32.03;;
13683;SDS011;6914;53.552;9.908;2023-04-09T03:41:22;58.93;;;30.87;;
13683;SDS011;6914;53.552;9.908;2023-04-09T03:43:49;76.93;;;31.00;;
13683;SDS011;6914;53.552;9.908;2023-04-09T03:46:17;63.63;;;32.03;;
13683;SDS011;6914;53.552;9.908;2023-04-09T03:48:44;57.87;;;31.47;;
13683;SDS011;6914;53.552;9.908;2023-04-09T03:51:11;65.10;;;32.33;;
13683;SDS011;6914;53.552;9.908;2023-04-09T03:53:38;67.80;;;32.30;;
13683;SDS011;6914;53.552;9.908;2023-04-09T03:56:06;68.03;;;32.43;;
13683;SDS011;6914;53.552;9.908;2023-04-09T03:58:35;75.87;;;35.53;;
13683;SDS011;6914;53.552;9.908;2023-04-09T04:01:02;73.57;;;35.20;;
13683;SDS011;6914;53.552;9.908;2023-04-09T04:03:31;74.37;;;34.03;;
13683;SDS011;6914;53.552;9.908;2023-04-09T04:05:59;66.50;;;35.50;;
13683;SDS011;6914;53.552;9.908;2023-04-09T04:08:27;75.90;;;35.80;;
13683;SDS011;6914;53.552;9.908;2023-04-09T04:10:54;73.60;;;36.13;;
13683;SDS011;6914;53.552;9.908;2023-04-09T04:13:21;70.63;;;36.33;;
13683;SDS011;6914;53.552;9.908;2023-04-09T04:15:48;78.23;;;38.40;;
13683;SDS011;6914;53.552;9.908;2023-04-09T04:18:15;79.30;;;39.87;;
13683;SDS011;6914;53.552;9.908;2023-04-09T04:20:43;86.47;;;41.13;;
13683;SDS011;6914;53.552;9.908;2023-04-09T04:23:10;81.93;;;38.53;;
13683;SDS011;6914;53.552;9.908;2023-04-09T04:25:39;81.60;;;39.17;;
13683;SDS011;6914;53.552;9.908;2023-04-09T04:28:06;84.33;;;39.73;;
13683;SDS011;6914;53.552;9.908;2023-04-09T04:30:36;82.10;;;39.03;;
13683;SDS011;6914;53.552;9.908;2023-04-09T04:33:06;75.53;;;39.47;;
13683;SDS011;6914;53.552;9.908;2023-04-09T04:35:35;84.37;;;40.77;;
13683;SDS011;6914;53.552;9.908;2023-04-09T04:38:03;85.60;;;39.60;;
13683;SDS011;6914;53.552;9.908;2023-04-09T04:40:30;89.23;;;41.03;;
13683;SDS011;6914;53.552;9.908;2023-04-09T04:42:57;84.20;;;37.83;;
13683;SDS011;6914;53.552;9.908;2023-04-09T04:45:24;85.33;;;39.10;;
13683;SDS011;6914;53.552;9.908;2023-04-09T04:47:51;72.37;;;37.37;;
13683;SDS011;6914;53.552;9.908;2023-04-09T04:50:18;75.10;;;38.00;;
13683;SDS011;6914;53.552;9.908;2023-04-09T04:52:44;92.67;;;38.87;;
13683;SDS011;6914;53.552;9.908;2023-04-09T04:55:13;79.40;;;38.70;;
13683;SDS011;6914;53.552;9.908;2023-04-09T04:57:39;88.33;;;42.03;;
13683;SDS011;6914;53.552;9.908;2023-04-09T05:00:07;93.07;;;42.50;;
13683;SDS011;6914;53.552;9.908;2023-04-09T05:02:37;94.43;;;41.30;;
13683;SDS011;6914;53.552;9.908;2023-04-09T05:05:04;92.13;;;39.93;;
13683;SDS011;6914;53.552;9.908;2023-04-09T05:07:32;78.23;;;39.47;;
13683;SDS011;6914;53.552;9.908;2023-04-09T05:09:59;97.50;;;42.33;;
13683;SDS011;6914;53.552;9.908;2023-04-09T05:12:29;93.50;;;41.97;;
13683;SDS011;6914;53.552;9.908;2023-04-09T05:14:56;88.87;;;40.33;;
13683;SDS011;6914;53.552;9.908;2023-04-09T05:17:23;96.13;;;42.77;;
13683;SDS011;6914;53.552;9.908;2023-04-09T05:19:50;94.90;;;44.07;;
13683;SDS011;6914;53.552;9.908;2023-04-09T05:22:17;94.23;;;42.00;;
13683;SDS011;6914;53.552;9.908;2023-04-09T05:24:44;96.70;;;41.53;;
13683;SDS011;6914;53.552;9.908;2023-04-09T05:27:11;94.03;;;43.10;;
13683;SDS011;6914;53.552;9.908;2023-04-09T05:29:39;102.93;;;43.30;;
13683;SDS011;6914;53.552;9.908;2023-04-09T05:32:07;115.43;;;43.43;;
13683;SDS011;6914;53.552;9.908;2023-04-09T05:34:36;99.63;;;44.10;;
13683;SDS011;6914;53.552;9.908;2023-04-09T05:37:03;103.07;;;43.00;;
13683;SDS011;6914;53.552;9.908;2023-04-09T05:39:31;103.93;;;41.57;;
13683;SDS011;6914;53.552;9.908;2023-04-09T05:41:57;108.63;;;41.83;;
13683;SDS011;6914;53.552;9.908;2023-04-09T05:44:24;92.73;;;41.80;;
13683;SDS011;6914;53.552;9.908;2023-04-09T05:46:53;80.00;;;38.60;;
13683;SDS011;6914;53.552;9.908;2023-04-09T05:49:20;81.80;;;38.53;;
13683;SDS011;6914;53.552;9.908;2023-04-09T05:51:48;79.23;;;36.83;;
13683;SDS011;6914;53.552;9.908;2023-04-09T05:54:15;97.07;;;40.77;;
13683;SDS011;6914;53.552;9.908;2023-04-09T05:56:42;91.80;;;40.70;;
13683;SDS011;6914;53.552;9.908;2023-04-09T05:59:09;83.07;;;39.07;;
13683;SDS011;6914;53.552;9.908;2023-04-09T06:01:38;86.17;;;37.97;;
13683;SDS011;6914;53.552;9.908;2023-04-09T06:04:07;100.97;;;41.13;;
13683;SDS011;6914;53.552;9.908;2023-04-09T06:06:37;88.63;;;38.43;;
13683;SDS011;6914;53.552;9.908;2023-04-09T06:09:04;90.23;;;38.43;;
13683;SDS011;6914;53.552;9.908;2023-04-09T06:11:31;96.27;;;39.53;;
13683;SDS011;6914;53.552;9.908;2023-04-09T06:13:58;84.53;;;39.30;;
13683;SDS011;6914;53.552;9.908;2023-04-09T06:16:25;78.93;;;39.30;;
13683;SDS011;6914;53.552;9.908;2023-04-09T06:18:52;84.73;;;38.80;;
13683;SDS011;6914;53.552;9.908;2023-04-09T06:21:22;82.97;;;38.40;;
13683;SDS011;6914;53.552;9.908;2023-04-09T06:23:49;87.83;;;38.00;;
13683;SDS011;6914;53.552;9.908;2023-04-09T06:26:17;87.00;;;37.40;;
13683;SDS011;6914;53.552;9.908;2023-04-09T06:28:44;89.93;;;40.30;;
13683;SDS011;6914;53.552;9.908;2023-04-09T06:31:12;74.20;;;38.40;;
13683;SDS011;6914;53.552;9.908;2023-04-09T06:33:39;87.97;;;38.10;;
13683;SDS011;6914;53.552;9.908;2023-04-09T06:36:06;87.87;;;41.00;;
13683;SDS011;6914;53.552;9.908;2023-04-09T06:38:35;93.17;;;41.33;;
13683;SDS011;6914;53.552;9.908;2023-04-09T06:41:02;98.20;;;39.90;;
13683;SDS011;6914;53.552;9.908;2023-04-09T06:43:32;85.23;;;38.73;;
13683;SDS011;6914;53.552;9.908;2023-04-09T06:46:00;83.67;;;37.30;;
13683;SDS011;6914;53.552;9.908;2023-04-09T06:48:26;93.73;;;39.47;;
13683;SDS011;6914;53.552;9.908;2023-04-09T06:50:53;88.53;;;39.93;;
13683;SDS011;6914;53.552;9.908;2023-04-09T06:53:20;95.23;;;39.20;;
13683;SDS011;6914;53.552;9.908;2023-04-09T06:55:48;91.00;;;38.50;;
13683;SDS011;6914;53.552;9.908;2023-04-09T06:58:16;106.93;;;41.90;;
13683;SDS011;6914;53.552;9.908;2023-04-09T07:00:42;83.53;;;37.60;;
13683;SDS011;6914;53.552;9.908;2023-04-09T07:03:13;94.67;;;38.80;;
13683;SDS011;6914;53.552;9.908;2023-04-09T07:05:40;90.63;;;38.23;;
13683;SDS011;6914;53.552;9.908;2023-04-09T07:08:07;91.70;;;38.83;;
13683;SDS011;6914;53.552;9.908;2023-04-09T07:10:41;106.57;;;43.33;;
13683;SDS011;6914;53.552;9.908;2023-04-09T07:13:09;118.20;;;41.67;;
13683;SDS011;6914;53.552;9.908;2023-04-09T07:15:37;93.90;;;41.70;;
13683;SDS011;6914;53.552;9.908;2023-04-09T07:18:04;95.17;;;39.37;;
13683;SDS011;6914;53.552;9.908;2023-04-09T07:20:31;96.63;;;41.90;;
13683;SDS011;6914;53.552;9.908;2023-04-09T07:22:58;94.60;;;40.80;;
13683;SDS011;6914;53.552;9.908;2023-04-09T07:25:25;107.83;;;39.17;;
13683;SDS011;6914;53.552;9.908;2023-04-09T07:27:52;111.93;;;41.50;;
13683;SDS011;6914;53.552;9.908;2023-04-09T07:30:20;94.83;;;40.97;;
13683;SDS011;6914;53.552;9.908;2023-04-09T07:32:47;101.30;;;40.23;;
13683;SDS011;6914;53.552;9.908;2023-04-09T07:35:14;93.97;;;42.40;;
13683;SDS011;6914;53.552;9.908;2023-04-09T07:37:42;104.63;;;41.67;;
13683;SDS011;6914;53.552;9.908;2023-04-09T07:40:10;92.43;;;41.40;;
13683;SDS011;6914;53.552;9.908;2023-04-09T07:42:39;90.20;;;41.80;;
13683;SDS011;6914;53.552;9.908;2023-04-09T07:45:06;89.83;;;40.00;;
13683;SDS011;6914;53.552;9.908;2023-04-09T07:47:35;91.80;;;40.43;;
13683;SDS011;6914;53.552;9.908;2023-04-09T07:50:03;85.27;;;38.80;;
13683;SDS011;6914;53.552;9.908;2023-04-09T07:52:31;102.10;;;42.80;;
13683;SDS011;6914;53.552;9.908;2023-04-09T07:54:58;89.93;;;42.10;;
13683;SDS011;6914;53.552;9.908;2023-04-09T07:57:25;94.67;;;42.20;;
13683;SDS011;6914;53.552;9.908;2023-04-09T07:59:52;90.57;;;38.67;;
13683;SDS011;6914;53.552;9.908;2023-04-09T08:02:19;77.87;;;39.50;;
13683;SDS011;6914;53.552;9.908;2023-04-09T08:04:48;89.63;;;41.47;;
13683;SDS011;6914;53.552;9.908;2023-04-09T08:07:15;93.27;;;39.43;;
13683;SDS011;6914;53.552;9.908;2023-04-09T08:09:42;85.73;;;37.27;;
13683;SDS011;6914;53.552;9.908;2023-04-09T08:12:10;81.57;;;35.77;;
13683;SDS011;6914;53.552;9.908;2023-04-09T08:14:39;86.20;;;41.77;;
13683;SDS011;6914;53.552;9.908;2023-04-09T08:17:06;85.27;;;40.83;;
13683;SDS011;6914;53.552;9.908;2023-04-09T08:19:32;90.33;;;41.67;;
13683;SDS011;6914;53.552;9.908;2023-04-09T08:22:01;79.80;;;38.53;;
13683;SDS011;6914;53.552;9.908;2023-04-09T08:24:28;82.37;;;38.50;;
13683;SDS011;6914;53.552;9.908;2023-04-09T08:26:55;91.00;;;41.47;;
13683;SDS011;6914;53.552;9.908;2023-04-09T08:29:22;80.27;;;38.73;;
13683;SDS011;6914;53.552;9.908;2023-04-09T08:31:49;82.83;;;38.40;;
13683;SDS011;6914;53.552;9.908;2023-04-09T08:34:16;77.07;;;38.83;;
13683;SDS011;6914;53.552;9.908;2023-04-09T08:36:45;90.70;;;42.10;;
13683;SDS011;6914;53.552;9.908;2023-04-09T08:39:16;80.57;;;37.17;;
13683;SDS011;6914;53.552;9.908;2023-04-09T08:41:45;77.40;;;38.27;;
13683;SDS011;6914;53.552;9.908;2023-04-09T08:44:12;62.90;;;33.33;;
13683;SDS011;6914;53.552;9.908;2023-04-09T08:46:40;81.03;;;36.40;;
13683;SDS011;6914;53.552;9.908;2023-04-09T08:49:07;56.80;;;32.77;;
13683;SDS011;6914;53.552;9.908;2023-04-09T08:51:35;56.33;;;31.97;;
13683;SDS011;6914;53.552;9.908;2023-04-09T08:54:03;63.50;;;35.20;;
13683;SDS011;6914;53.552;9.908;2023-04-09T08:56:31;61.87;;;31.90;;
13683;SDS011;6914;53.552;9.908;2023-04-09T08:58:58;57.37;;;29.43;;
13683;SDS011;6914;53.552;9.908;2023-04-09T09:01:26;59.23;;;32.20;;
13683;SDS011;6914;53.552;9.908;2023-04-09T09:03:55;64.87;;;32.60;;
13683;SDS011;6914;53.552;9.908;2023-04-09T09:06:24;57.37;;;32.63;;
13683;SDS011;6914;53.552;9.908;2023-04-09T09:09:01;51.13;;;31.13;;
13683;SDS011;6914;53.552;9.908;2023-04-09T09:11:29;52.73;;;31.33;;
13683;SDS011;6914;53.552;9.908;2023-04-09T09:13:58;55.90;;;32.33;;
13683;SDS011;6914;53.552;9.908;2023-04-09T09:16:26;59.70;;;32.17;;
13683;SDS011;6914;53.552;9.908;2023-04-09T09:18:53;48.43;;;30.53;;
13683;SDS011;6914;53.552;9.908;2023-04-09T09:21:20;51.70;;;28.53;;
13683;SDS011;6914;53.552;9.908;2023-04-09T09:23:48;53.23;;;29.83;;
13683;SDS011;6914;53.552;9.908;2023-04-09T09:26:16;53.03;;;31.33;;
13683;SDS011;6914;53.552;9.908;2023-04-09T09:28:45;53.00;;;31.70;;
13683;SDS011;6914;53.552;9.908;2023-04-09T09:31:16;55.13;;;26.97;;
13683;SDS011;6914;53.552;9.908;2023-04-09T09:33:45;43.90;;;28.20;;
13683;SDS011;6914;53.552;9.908;2023-04-09T09:36:13;49.30;;;25.93;;
13683;SDS011;6914;53.552;9.908;2023-04-09T09:38:56;43.30;;;27.50;;
13683;SDS011;6914;53.552;9.908;2023-04-09T09:41:26;48.70;;;26.83;;
13683;SDS011;6914;53.552;9.908;2023-04-09T09:43:53;47.47;;;27.37;;
13683;SDS011;6914;53.552;9.908;2023-04-09T09:46:21;49.23;;;27.77;;
13683;SDS011;6914;53.552;9.908;2023-04-09T09:48:51;46.60;;;26.63;;
13683;SDS011;6914;53.552;9.908;2023-04-09T09:51:19;47.17;;;28.87;;
13683;SDS011;6914;53.552;9.908;2023-04-09T09:53:51;45.83;;;25.47;;
13683;SDS011;6914;53.552;9.908;2023-04-09T09:56:21;47.57;;;29.03;;
13683;SDS011;6914;53.552;9.908;2023-04-09T09:58:52;48.13;;;27.40;;
13683;SDS011;6914;53.552;9.908;2023-04-09T10:01:27;40.83;;;26.73;;
13683;SDS011;6914;53.552;9.908;2023-04-09T10:03:54;50.90;;;28.90;;
13683;SDS011;6914;53.552;9.908;2023-04-09T10:06:23;53.37;;;29.37;;
13683;SDS011;6914;53.552;9.908;2023-04-09T10:08:51;58.70;;;31.10;;
13683;SDS011;6914;53.552;9.908;2023-04-09T10:11:22;53.03;;;31.50;;
13683;SDS011;6914;53.552;9.908;2023-04-09T10:13:49;57.73;;;31.33;;
13683;SDS011;6914;53.552;9.908;2023-04-09T10:16:21;48.40;;;30.83;;
13683;SDS011;6914;53.552;9.908;2023-04-09T10:18:50;58.13;;;31.40;;
13683;SDS011;6914;53.552;9.908;2023-04-09T10:21:19;51.83;;;31.67;;
13683;SDS011;6914;53.552;9.908;2023-04-09T10:23:52;55.07;;;33.13;;
13683;SDS011;6914;53.552;9.908;2023-04-09T10:26:19;60.10;;;34.87;;
13683;SDS011;6914;53.552;9.908;2023-04-09T10:29:02;56.23;;;32.43;;
13683;SDS011;6914;53.552;9.908;2023-04-09T10:31:45;60.00;;;33.70;;
13683;SDS011;6914;53.552;9.908;2023-04-09T10:34:16;56.50;;;32.13;;
13683;SDS011;6914;53.552;9.908;2023-04-09T10:36:44;54.40;;;32.30;;
13683;SDS011;6914;53.552;9.908;2023-04-09T10:39:11;55.90;;;34.13;;
13683;SDS011;6914;53.552;9.908;2023-04-09T10:41:39;52.77;;;36.00;;
13683;SDS011;6914;53.552;9.908;2023-04-09T10:44:10;58.70;;;35.20;;
13683;SDS011;6914;53.552;9.908;2023-04-09T10:46:46;54.97;;;34.07;;
13683;SDS011;6914;53.552;9.908;2023-04-09T10:49:16;49.93;;;31.27;;
13683;SDS011;6914;53.552;9.908;2023-04-09T10:51:48;47.80;;;30.57;;
13683;SDS011;6914;53.552;9.908;2023-04-09T10:57:10;47.67;;;31.50;;
13683;SDS011;6914;53.552;9.908;2023-04-09T10:59:39;50.27;;;30.13;;
13683;SDS011;6914;53.552;9.908;2023-04-09T11:02:09;44.77;;;30.17;;
13683;SDS011;6914;53.552;9.908;2023-04-09T11:05:20;46.03;;;31.40;;
13683;SDS011;6914;53.552;9.908;2023-04-09T11:07:52;52.53;;;31.60;;
13683;SDS011;6914;53.552;9.908;2023-04-09T11:10:23;49.93;;;31.33;;
13683;SDS011;6914;53.552;9.908;2023-04-09T11:12:50;49.33;;;31.83;;
13683;SDS011;6914;53.552;9.908;2023-04-09T11:15:18;48.83;;;31.50;;
13683;SDS011;6914;53.552;9.908;2023-04-09T11:17:45;49.20;;;31.00;;
13683;SDS011;6914;53.552;9.908;2023-04-09T11:20:12;46.47;;;30.17;;
13683;SDS011;6914;53.552;9.908;2023-04-09T11:22:45;42.37;;;30.03;;
13683;SDS011;6914;53.552;9.908;2023-04-09T11:25:18;41.10;;;28.73;;
13683;SDS011;6914;53.552;9.908;2023-04-09T11:27:45;38.50;;;27.70;;
13683;SDS011;6914;53.552;9.908;2023-04-09T11:30:12;42.33;;;28.67;;
13683;SDS011;6914;53.552;9.908;2023-04-09T11:32:42;34.53;;;25.90;;
13683;SDS011;6914;53.552;9.908;2023-04-09T11:35:10;37.80;;;27.90;;
13683;SDS011;6914;53.552;9.908;2023-04-09T11:37:39;44.50;;;29.50;;
13683;SDS011;6914;53.552;9.908;2023-04-09T11:40:12;43.17;;;29.20;;
13683;SDS011;6914;53.552;9.908;2023-04-09T11:42:43;33.57;;;24.80;;
13683;SDS011;6914;53.552;9.908;2023-04-09T11:45:11;39.97;;;28.57;;
13683;SDS011;6914;53.552;9.908;2023-04-09T11:47:39;45.13;;;30.77;;
13683;SDS011;6914;53.552;9.908;2023-04-09T11:50:07;36.03;;;27.70;;
13683;SDS011;6914;53.552;9.908;2023-04-09T11:52:35;38.73;;;27.40;;
13683;SDS011;6914;53.552;9.908;2023-04-09T11:55:03;38.43;;;28.70;;
13683;SDS011;6914;53.552;9.908;2023-04-09T11:57:42;41.50;;;29.47;;
13683;SDS011;6914;53.552;9.908;2023-04-09T12:00:11;43.00;;;30.00;;
13683;SDS011;6914;53.552;9.908;2023-04-09T12:02:43;38.43;;;27.93;;
13683;SDS011;6914;53.552;9.908;2023-04-09T12:05:12;49.07;;;30.57;;
13683;SDS011;6914;53.552;9.908;2023-04-09T12:07:46;39.13;;;28.40;;
13683;SDS011;6914;53.552;9.908;2023-04-09T12:10:13;40.87;;;29.40;;
13683;SDS011;6914;53.552;9.908;2023-04-09T12:12:44;52.93;;;28.80;;
13683;SDS011;6914;53.552;9.908;2023-04-09T12:15:17;47.20;;;30.60;;
13683;SDS011;6914;53.552;9.908;2023-04-09T12:17:46;50.67;;;32.63;;
13683;SDS011;6914;53.552;9.908;2023-04-09T12:20:24;40.80;;;27.37;;
13683;SDS011;6914;53.552;9.908;2023-04-09T12:22:53;41.67;;;31.03;;
13683;SDS011;6914;53.552;9.908;2023-04-09T12:25:20;59.23;;;36.23;;
13683;SDS011;6914;53.552;9.908;2023-04-09T12:27:48;75.20;;;44.63;;
13683;SDS011;6914;53.552;9.908;2023-04-09T12:30:15;56.90;;;36.27;;
13683;SDS011;6914;53.552;9.908;2023-04-09T12:32:45;51.50;;;33.40;;
13683;SDS011;6914;53.552;9.908;2023-04-09T12:35:12;39.53;;;28.27;;
13683;SDS011;6914;53.552;9.908;2023-04-09T12:37:39;48.63;;;30.90;;
13683;SDS011;6914;53.552;9.908;2023-04-09T12:40:07;42.33;;;28.30;;
13683;SDS011;6914;53.552;9.908;2023-04-09T12:42:34;35.83;;;25.43;;
13683;SDS011;6914;53.552;9.908;2023-04-09T12:45:03;34.90;;;22.10;;
13683;SDS011;6914;53.552;9.908;2023-04-09T12:47:30;43.10;;;28.67;;
13683;SDS011;6914;53.552;9.908;2023-04-09T12:49:58;37.80;;;27.37;;
13683;SDS011;6914;53.552;9.908;2023-04-09T12:52:24;43.83;;;27.10;;
13683;SDS011;6914;53.552;9.908;2023-04-09T12:54:51;34.90;;;24.20;;
13683;SDS011;6914;53.552;9.908;2023-04-09T12:57:19;33.90;;;23.97;;
13683;SDS011;6914;53.552;9.908;2023-04-09T12:59:46;36.90;;;25.77;;
13683;SDS011;6914;53.552;9.908;2023-04-09T13:02:16;36.60;;;25.73;;
13683;SDS011;6914;53.552;9.908;2023-04-09T13:04:46;35.37;;;25.33;;
13683;SDS011;6914;53.552;9.908;2023-04-09T13:07:13;40.07;;;26.20;;
13683;SDS011;6914;53.552;9.908;2023-04-09T13:09:45;44.27;;;28.80;;
13683;SDS011;6914;53.552;9.908;2023-04-09T13:12:12;39.10;;;26.00;;
13683;SDS011;6914;53.552;9.908;2023-04-09T13:14:40;43.63;;;27.27;;
13683;SDS011;6914;53.552;9.908;2023-04-09T13:17:08;43.93;;;26.57;;
13683;SDS011;6914;53.552;9.908;2023-04-09T13:19:36;42.53;;;27.90;;
13683;SDS011;6914;53.552;9.908;2023-04-09T13:22:03;35.37;;;24.00;;
13683;SDS011;6914;53.552;9.908;2023-04-09T13:24:32;40.80;;;25.57;;
13683;SDS011;6914;53.552;9.908;2023-04-09T13:26:59;38.63;;;23.20;;
13683;SDS011;6914;53.552;9.908;2023-04-09T13:29:26;40.90;;;24.90;;
13683;SDS011;6914;53.552;9.908;2023-04-09T13:31:54;34.10;;;23.67;;
13683;SDS011;6914;53.552;9.908;2023-04-09T13:34:21;38.27;;;24.83;;
13683;SDS011;6914;53.552;9.908;2023-04-09T13:36:50;38.63;;;24.47;;
13683;SDS011;6914;53.552;9.908;2023-04-09T13:39:18;32.00;;;21.93;;
13683;SDS011;6914;53.552;9.908;2023-04-09T13:41:45;41.00;;;25.30;;
13683;SDS011;6914;53.552;9.908;2023-04-09T13:44:12;31.33;;;23.10;;
13683;SDS011;6914;53.552;9.908;2023-04-09T13:46:39;29.17;;;21.10;;
13683;SDS011;6914;53.552;9.908;2023-04-09T13:49:06;36.53;;;22.43;;
13683;SDS011;6914;53.552;9.908;2023-04-09T13:51:33;29.70;;;21.00;;
13683;SDS011;6914;53.552;9.908;2023-04-09T13:54:01;32.50;;;22.77;;
13683;SDS011;6914;53.552;9.908;2023-04-09T13:56:29;37.73;;;22.40;;
13683;SDS011;6914;53.552;9.908;2023-04-09T13:58:56;30.97;;;22.47;;
13683;SDS011;6914;53.552;9.908;2023-04-09T14:01:23;32.63;;;21.77;;
13683;SDS011;6914;53.552;9.908;2023-04-09T14:03:52;28.33;;;21.53;;
13683;SDS011;6914;53.552;9.908;2023-04-09T14:06:19;32.77;;;22.70;;
13683;SDS011;6914;53.552;9.908;2023-04-09T14:08:50;28.60;;;21.30;;
13683;SDS011;6914;53.552;9.908;2023-04-09T14:11:19;32.43;;;19.83;;
13683;SDS011;6914;53.552;9.908;2023-04-09T14:13:48;29.93;;;20.47;;
13683;SDS011;6914;53.552;9.908;2023-04-09T14:16:15;29.00;;;20.90;;
13683;SDS011;6914;53.552;9.908;2023-04-09T14:18:42;28.17;;;19.10;;
13683;SDS011;6914;53.552;9.908;2023-04-09T14:21:09;35.30;;;24.07;;
13683;SDS011;6914;53.552;9.908;2023-04-09T14:23:36;26.83;;;20.30;;
13683;SDS011;6914;53.552;9.908;2023-04-09T14:26:04;34.37;;;20.00;;
13683;SDS011;6914;53.552;9.908;2023-04-09T14:28:32;30.37;;;20.50;;
13683;SDS011;6914;53.552;9.908;2023-04-09T14:30:59;33.83;;;21.70;;
13683;SDS011;6914;53.552;9.908;2023-04-09T14:33:26;32.50;;;22.73;;
13683;SDS011;6914;53.552;9.908;2023-04-09T14:35:54;31.00;;;23.60;;
13683;SDS011;6914;53.552;9.908;2023-04-09T14:38:22;31.30;;;21.80;;
13683;SDS011;6914;53.552;9.908;2023-04-09T14:40:49;33.93;;;21.37;;
13683;SDS011;6914;53.552;9.908;2023-04-09T14:43:17;30.60;;;20.80;;
13683;SDS011;6914;53.552;9.908;2023-04-09T14:45:45;29.63;;;19.53;;
13683;SDS011;6914;53.552;9.908;2023-04-09T14:48:12;31.60;;;21.50;;